createdAt,value
2022-11-04T00:01:42.029Z,0.70
2022-11-04T00:04:10.221Z,0.82
2022-11-04T00:06:38.024Z,0.60
2022-11-04T00:09:07.030Z,0.77
2022-11-04T00:11:52.786Z,1.00
2022-11-04T00:14:20.098Z,0.70
2022-11-04T00:17:05.828Z,0.65
2022-11-04T00:19:51.109Z,0.30
2022-11-04T00:22:36.619Z,0.50
2022-11-04T00:25:22.289Z,0.55
2022-11-04T00:28:07.750Z,0.50
2022-11-04T00:30:34.750Z,0.40
2022-11-04T00:33:20.085Z,0.47
2022-11-04T00:35:54.360Z,0.50
2022-11-04T00:38:21.436Z,0.40
2022-11-04T00:40:48.264Z,0.43
2022-11-04T00:43:15.390Z,0.50
2022-11-04T00:45:43.025Z,0.40
2022-11-04T00:48:10.539Z,0.30
2022-11-04T00:50:37.649Z,0.40
2022-11-04T00:53:05.025Z,0.38
2022-11-04T00:55:32.412Z,0.70
2022-11-04T00:57:59.770Z,0.40
2022-11-04T01:00:27.030Z,0.40
2022-11-04T01:02:56.550Z,0.30
2022-11-04T01:05:23.761Z,0.40
2022-11-04T01:07:50.544Z,0.45
2022-11-04T01:10:17.349Z,0.38
2022-11-04T01:12:44.148Z,0.60
2022-11-04T01:15:11.067Z,0.50
2022-11-04T01:17:37.952Z,0.50
2022-11-04T01:20:05.108Z,0.30
2022-11-04T01:22:31.905Z,0.43
2022-11-04T01:24:58.703Z,0.30
2022-11-04T01:27:25.517Z,0.52
2022-11-04T01:29:52.332Z,0.50
2022-11-04T01:32:19.098Z,0.50
2022-11-04T01:34:47.011Z,0.60
2022-11-04T01:37:13.876Z,0.70
2022-11-04T01:39:40.717Z,0.60
2022-11-04T01:42:10.104Z,0.80
2022-11-04T01:44:47.576Z,0.57
2022-11-04T01:47:42.005Z,0.70
2022-11-04T01:50:20.587Z,0.60
2022-11-04T01:53:07.989Z,0.70
2022-11-04T01:55:43.324Z,0.65
2022-11-04T01:58:15.278Z,0.57
2022-11-04T02:00:43.313Z,1.02
2022-11-04T02:03:16.134Z,0.50
2022-11-04T02:05:43.972Z,0.52
2022-11-04T02:08:11.950Z,0.70
2022-11-04T02:10:42.284Z,0.57
2022-11-04T02:13:09.441Z,0.57
2022-11-04T02:16:08.394Z,0.50
2022-11-04T02:18:35.129Z,0.40
2022-11-04T02:21:14.045Z,0.60
2022-11-04T02:24:04.691Z,0.70
2022-11-04T02:26:50.368Z,0.70
2022-11-04T02:29:44.520Z,0.60
2022-11-04T02:32:34.347Z,0.45
2022-11-04T02:35:32.762Z,0.77
2022-11-04T02:38:11.157Z,0.90
2022-11-04T02:40:56.743Z,0.60
2022-11-04T02:43:41.916Z,0.70
2022-11-04T02:46:17.950Z,0.60
2022-11-04T02:49:08.845Z,0.77
2022-11-04T02:51:44.979Z,0.63
2022-11-04T02:54:20.201Z,0.70
2022-11-04T02:56:52.682Z,0.65
2022-11-04T02:59:44.018Z,0.80
2022-11-04T03:02:20.177Z,1.02
2022-11-04T03:04:51.171Z,1.10
2022-11-04T03:07:34.955Z,1.02
2022-11-04T03:10:09.673Z,1.00
2022-11-04T03:12:50.872Z,1.10
2022-11-04T03:15:26.967Z,0.70
2022-11-04T03:18:21.316Z,0.68
2022-11-04T03:20:50.061Z,0.70
2022-11-04T03:23:17.489Z,1.00
2022-11-04T03:25:47.833Z,1.00
2022-11-04T03:28:36.444Z,1.10
2022-11-04T03:31:06.219Z,0.70
2022-11-04T03:33:53.432Z,0.70
2022-11-04T03:36:21.728Z,0.95
2022-11-04T03:38:49.337Z,0.90
2022-11-04T03:41:21.803Z,0.80
2022-11-04T03:43:48.777Z,0.98
2022-11-04T03:46:15.701Z,0.80
2022-11-04T03:48:45.118Z,1.00
2022-11-04T03:51:11.924Z,0.63
2022-11-04T03:53:38.974Z,0.90
2022-11-04T03:56:31.611Z,0.70
2022-11-04T03:59:33.693Z,0.70
2022-11-04T04:02:12.302Z,0.90
2022-11-04T04:04:45.615Z,0.90
2022-11-04T04:07:15.044Z,0.60
2022-11-04T04:10:00.309Z,0.80
2022-11-04T04:12:40.447Z,1.02
2022-11-04T04:15:30.827Z,0.60
2022-11-04T04:18:05.908Z,0.77
2022-11-04T04:20:36.485Z,0.57
2022-11-04T04:23:29.815Z,0.60
2022-11-04T04:26:18.399Z,0.80
2022-11-04T04:28:46.940Z,0.60
2022-11-04T04:31:36.277Z,0.60
2022-11-04T04:34:03.435Z,0.60
2022-11-04T04:36:34.049Z,0.73
2022-11-04T04:39:25.457Z,0.82
2022-11-04T04:42:11.753Z,0.70
2022-11-04T04:45:00.868Z,0.70
2022-11-04T04:47:35.217Z,0.98
2022-11-04T04:50:02.516Z,0.95
2022-11-04T04:52:33.477Z,0.85
2022-11-04T04:55:00.347Z,0.70
2022-11-04T04:57:27.339Z,0.80
2022-11-04T04:59:54.179Z,0.80
2022-11-04T05:02:21.077Z,0.68
2022-11-04T05:04:48.001Z,0.60
2022-11-04T05:07:14.813Z,0.40
2022-11-04T05:09:41.885Z,0.40
2022-11-04T05:12:10.023Z,0.60
2022-11-04T05:14:37.211Z,0.60
2022-11-04T05:17:04.466Z,0.50
2022-11-04T05:19:31.317Z,0.60
2022-11-04T05:21:58.954Z,0.70
2022-11-04T05:24:25.820Z,0.80
2022-11-04T05:26:52.707Z,0.57
2022-11-04T05:29:19.841Z,0.70
2022-11-04T05:31:46.713Z,0.90
2022-11-04T05:34:13.914Z,1.05
2022-11-04T05:36:41.193Z,0.65
2022-11-04T05:39:11.162Z,0.80
2022-11-04T05:41:37.981Z,0.80
2022-11-04T05:44:05.331Z,0.50
2022-11-04T05:46:32.472Z,0.50
2022-11-04T05:48:59.336Z,0.57
2022-11-04T05:51:28.308Z,0.70
2022-11-04T05:53:55.213Z,0.70
2022-11-04T05:56:22.279Z,0.50
2022-11-04T05:58:49.167Z,0.40
2022-11-04T06:01:37.100Z,0.30
2022-11-04T06:04:05.598Z,0.40
2022-11-04T06:06:35.931Z,1.08
2022-11-04T06:09:03.578Z,0.50
2022-11-04T06:11:31.509Z,0.43
2022-11-04T06:13:58.952Z,0.38
2022-11-04T06:16:25.816Z,0.50
2022-11-04T06:18:53.483Z,0.40
2022-11-04T06:21:29.499Z,0.40
2022-11-04T06:23:57.686Z,0.68
2022-11-04T06:26:28.368Z,0.50
2022-11-04T06:28:55.601Z,0.40
2022-11-04T06:31:22.582Z,0.50
2022-11-04T06:33:49.586Z,0.50
2022-11-04T06:36:17.130Z,0.40
2022-11-04T06:38:44.011Z,0.50
2022-11-04T06:41:16.362Z,0.50
2022-11-04T06:43:43.298Z,0.60
2022-11-04T06:46:31.896Z,0.75
2022-11-04T06:48:58.658Z,0.90
2022-11-04T06:51:26.008Z,0.90
2022-11-04T06:53:52.946Z,0.77
2022-11-04T06:56:19.749Z,0.60
2022-11-04T06:58:50.901Z,0.70
2022-11-04T07:01:22.048Z,0.45
2022-11-04T07:03:51.728Z,0.50
2022-11-04T07:06:19.867Z,0.55
2022-11-04T07:08:50.896Z,0.50
2022-11-04T07:11:21.219Z,0.70
2022-11-04T07:13:48.991Z,0.68
2022-11-04T07:16:16.151Z,0.63
2022-11-04T07:18:43.075Z,0.77
2022-11-04T07:21:10.774Z,0.70
2022-11-04T07:23:38.153Z,0.60
2022-11-04T07:26:07.993Z,0.60
2022-11-04T07:28:35.240Z,0.52
2022-11-04T07:31:04.333Z,0.93
2022-11-04T07:33:31.585Z,0.80
2022-11-04T07:35:58.649Z,0.85
2022-11-04T07:38:25.655Z,0.90
2022-11-04T07:40:52.498Z,0.90
2022-11-04T07:43:19.313Z,0.60
2022-11-04T07:45:46.211Z,0.50
2022-11-04T07:48:13.245Z,0.70
2022-11-04T07:50:40.689Z,0.50
2022-11-04T07:53:08.214Z,0.52
2022-11-04T07:55:43.139Z,0.50
2022-11-04T07:58:10.994Z,0.40
2022-11-04T08:00:37.762Z,0.50
2022-11-04T08:03:04.633Z,0.80
2022-11-04T08:05:31.465Z,0.73
2022-11-04T08:07:58.277Z,0.47
2022-11-04T08:10:25.112Z,0.55
2022-11-04T08:12:52.750Z,0.50
2022-11-04T08:15:19.625Z,0.40
2022-11-04T08:17:46.568Z,0.38
2022-11-04T08:20:13.526Z,0.43
2022-11-04T08:22:40.273Z,0.55
2022-11-04T08:25:07.682Z,0.40
2022-11-04T08:27:35.034Z,0.60
2022-11-04T08:30:01.963Z,0.50
2022-11-04T08:32:28.769Z,0.30
2022-11-04T08:34:56.378Z,0.60
2022-11-04T08:37:23.183Z,0.40
2022-11-04T08:39:49.981Z,0.40
2022-11-04T08:42:16.779Z,0.40
2022-11-04T08:44:43.686Z,0.60
2022-11-04T08:47:10.448Z,0.65
2022-11-04T08:49:41.087Z,0.90
2022-11-04T08:52:07.951Z,0.60
2022-11-04T08:54:34.685Z,0.60
2022-11-04T08:57:02.659Z,0.77
2022-11-04T08:59:29.653Z,0.77
2022-11-04T09:01:56.467Z,0.50
2022-11-04T09:04:24.011Z,0.57
2022-11-04T09:06:52.201Z,0.85
2022-11-04T09:09:19.687Z,0.43
2022-11-04T09:11:47.146Z,0.40
2022-11-04T09:14:14.764Z,0.40
2022-11-04T09:16:42.200Z,0.60
2022-11-04T09:19:09.542Z,0.88
2022-11-04T09:21:36.540Z,0.80
2022-11-04T09:24:03.536Z,0.40
2022-11-04T09:26:30.371Z,0.47
2022-11-04T09:28:58.636Z,0.50
2022-11-04T09:31:27.172Z,0.55
2022-11-04T09:33:55.632Z,0.30
2022-11-04T09:36:22.693Z,0.50
2022-11-04T09:38:49.759Z,0.60
2022-11-04T09:41:26.045Z,0.70
2022-11-04T09:44:23.334Z,0.50
2022-11-04T09:46:52.812Z,0.40
2022-11-04T09:49:20.302Z,0.50
2022-11-04T09:51:54.158Z,0.55
2022-11-04T09:54:32.756Z,0.40
2022-11-04T09:57:01.813Z,0.50
2022-11-04T09:59:32.332Z,0.38
2022-11-04T10:02:22.251Z,0.40
2022-11-04T10:05:07.557Z,0.50
2022-11-04T10:07:40.266Z,0.50
2022-11-04T10:10:27.980Z,0.50
2022-11-04T10:13:28.809Z,0.30
2022-11-04T10:16:18.938Z,0.20
2022-11-04T10:19:02.476Z,0.30
2022-11-04T10:21:53.333Z,0.30
2022-11-04T10:24:40.447Z,0.30
2022-11-04T10:27:28.083Z,0.40
2022-11-04T10:29:59.926Z,0.43
2022-11-04T10:32:38.607Z,0.30
2022-11-04T10:35:39.499Z,0.40
2022-11-04T10:38:24.714Z,0.40
2022-11-04T10:40:55.779Z,0.30
2022-11-04T10:43:28.657Z,0.60
2022-11-04T10:46:13.637Z,0.30
2022-11-04T10:48:51.553Z,0.30
2022-11-04T10:51:22.052Z,0.13
2022-11-04T10:53:59.590Z,0.20
2022-11-04T10:56:45.796Z,0.28
2022-11-04T10:59:20.677Z,0.30
2022-11-04T11:01:59.201Z,0.85
2022-11-04T11:04:35.918Z,0.38
2022-11-04T11:07:05.960Z,0.25
2022-11-04T11:09:36.037Z,0.20
2022-11-04T11:12:29.557Z,0.30
2022-11-04T11:14:53.731Z,0.35
2022-11-04T11:17:38.534Z,0.40
2022-11-04T11:20:22.990Z,0.32
2022-11-04T11:22:59.224Z,0.30
2022-11-04T11:25:33.955Z,0.20
2022-11-04T11:28:03.833Z,0.20
2022-11-04T11:30:49.185Z,0.30
2022-11-04T11:33:45.241Z,0.30
2022-11-04T11:36:16.983Z,0.40
2022-11-04T11:38:55.221Z,0.30
2022-11-04T11:41:28.852Z,0.20
2022-11-04T11:43:56.665Z,0.40
2022-11-04T11:46:26.475Z,0.30
2022-11-04T11:49:00.949Z,0.45
2022-11-04T11:51:39.475Z,0.35
2022-11-04T11:54:25.310Z,0.40
2022-11-04T11:57:13.943Z,0.40
2022-11-04T12:09:52.947Z,0.38
2022-11-04T12:12:22.575Z,0.40
2022-11-04T12:15:37.280Z,0.30
2022-11-04T12:18:07.548Z,0.40
2022-11-04T12:20:58.952Z,0.45
2022-11-04T12:23:32.163Z,0.40
2022-11-04T12:26:08.669Z,0.30
2022-11-04T12:28:56.359Z,0.40
2022-11-04T12:31:50.544Z,0.50
2022-11-04T12:34:36.307Z,0.50
2022-11-04T12:37:18.689Z,0.40
2022-11-04T12:40:12.492Z,0.60
2022-11-04T12:42:56.721Z,0.35
2022-11-04T12:45:45.759Z,0.30
2022-11-04T12:48:37.814Z,0.60
2022-11-04T12:51:23.463Z,0.40
2022-11-04T12:53:53.363Z,0.40
2022-11-04T12:56:23.708Z,0.52
2022-11-04T12:59:25.869Z,0.60
2022-11-04T13:01:58.096Z,0.68
2022-11-04T13:04:39.179Z,0.63
2022-11-04T13:07:16.094Z,0.70
2022-11-04T13:10:00.750Z,0.70
2022-11-04T13:12:41.521Z,0.70
2022-11-04T13:15:17.188Z,0.57
2022-11-04T13:17:46.368Z,0.80
2022-11-04T13:20:15.844Z,0.88
2022-11-04T13:22:49.228Z,1.08
2022-11-04T13:25:34.098Z,0.50
2022-11-04T13:28:02.366Z,0.60
2022-11-04T13:31:06.379Z,0.50
2022-11-04T13:34:12.740Z,0.43
2022-11-04T13:37:12.912Z,0.40
2022-11-04T13:39:46.714Z,0.40
2022-11-04T13:42:25.541Z,0.30
2022-11-04T13:44:57.923Z,0.30
2022-11-04T13:47:47.066Z,0.30
2022-11-04T13:50:38.347Z,0.30
2022-11-04T13:53:07.626Z,0.30
2022-11-04T13:55:35.955Z,0.30
2022-11-04T13:58:05.524Z,0.38
2022-11-04T14:00:34.580Z,0.30
2022-11-04T14:03:24.918Z,0.20
2022-11-04T14:06:00.839Z,0.30
2022-11-04T14:08:27.950Z,0.20
2022-11-04T14:10:55.010Z,0.20
2022-11-04T14:13:28.218Z,0.20
2022-11-04T14:16:09.993Z,0.20
2022-11-04T14:18:42.034Z,0.20
2022-11-04T14:21:14.678Z,0.30
2022-11-04T14:23:45.282Z,0.20
2022-11-04T14:26:14.831Z,0.20
2022-11-04T14:28:45.192Z,0.20
2022-11-04T14:31:17.566Z,0.20
2022-11-04T14:33:56.193Z,0.10
2022-11-04T14:36:34.776Z,0.28
2022-11-04T14:39:12.381Z,0.30
2022-11-04T14:41:59.057Z,0.43
2022-11-04T14:44:42.181Z,0.20
2022-11-04T14:47:15.139Z,0.28
2022-11-04T14:50:08.827Z,0.30
2022-11-04T14:52:38.652Z,0.30
2022-11-04T14:55:07.410Z,0.40
2022-11-04T14:57:43.734Z,0.50
2022-11-04T15:00:51.160Z,0.47
2022-11-04T15:04:10.026Z,0.40
2022-11-04T15:06:40.818Z,0.43
2022-11-04T15:09:35.329Z,0.50
2022-11-04T15:12:29.768Z,0.50
2022-11-04T15:14:58.215Z,0.80
2022-11-04T15:17:31.559Z,0.70
2022-11-04T15:20:02.125Z,0.63
2022-11-04T15:22:30.561Z,0.70
2022-11-04T15:25:02.625Z,0.90
2022-11-04T15:27:31.062Z,0.70
2022-11-04T15:30:00.499Z,0.70
2022-11-04T15:32:27.529Z,0.73
2022-11-04T15:34:55.842Z,0.70
2022-11-04T15:37:29.040Z,0.70
2022-11-04T15:39:58.259Z,0.85
2022-11-04T15:42:40.478Z,0.70
2022-11-04T15:45:22.686Z,0.82
2022-11-04T15:48:09.967Z,0.50
2022-11-04T15:50:37.544Z,0.50
2022-11-04T15:53:11.459Z,0.40
2022-11-04T15:55:40.993Z,0.60
2022-11-04T15:58:12.254Z,0.45
2022-11-04T16:00:39.661Z,0.40
2022-11-04T16:03:07.707Z,0.40
2022-11-04T16:05:38.208Z,0.35
2022-11-04T16:08:29.084Z,0.40
2022-11-04T16:11:28.289Z,0.30
2022-11-04T16:14:25.004Z,0.35
2022-11-04T16:16:53.483Z,0.20
2022-11-04T16:19:23.608Z,0.40
2022-11-04T16:22:09.150Z,0.40
2022-11-04T16:24:39.515Z,0.30
2022-11-04T16:27:11.186Z,0.30
2022-11-04T16:29:41.572Z,0.50
2022-11-04T16:32:28.661Z,0.45
2022-11-04T16:35:01.279Z,0.22
2022-11-04T16:37:28.435Z,0.35
2022-11-04T16:39:55.409Z,0.20
2022-11-04T16:42:22.524Z,0.25
2022-11-04T16:44:51.889Z,0.38
2022-11-04T16:47:19.827Z,0.30
2022-11-04T16:49:47.205Z,0.40
2022-11-04T16:52:19.003Z,0.30
2022-11-04T16:54:48.231Z,0.20
2022-11-04T16:57:16.206Z,0.30
2022-11-04T16:59:43.772Z,0.38
2022-11-04T17:02:21.251Z,0.30
2022-11-04T17:04:48.279Z,0.30
2022-11-04T17:07:15.223Z,0.30
2022-11-04T17:09:42.533Z,0.50
2022-11-04T17:12:10.188Z,0.38
2022-11-04T17:14:37.860Z,0.40
2022-11-04T17:17:05.097Z,0.32
2022-11-04T17:19:34.922Z,0.40
2022-11-04T17:22:05.288Z,0.40
2022-11-04T17:24:32.774Z,0.40
2022-11-04T17:27:00.038Z,0.47
2022-11-04T17:29:26.860Z,0.60
2022-11-04T17:31:53.936Z,0.68
2022-11-04T17:34:24.011Z,0.50
2022-11-04T17:36:50.792Z,0.45
2022-11-04T17:39:17.820Z,0.40
2022-11-04T17:42:03.800Z,0.43
2022-11-04T17:44:30.583Z,0.30
2022-11-04T17:47:00.473Z,0.30
2022-11-04T17:49:28.352Z,0.20
2022-11-04T17:51:58.514Z,0.30
2022-11-04T17:54:28.121Z,0.20
2022-11-04T17:56:56.014Z,0.40
2022-11-04T17:59:23.173Z,0.50
2022-11-04T18:01:50.548Z,0.30
2022-11-04T18:04:22.447Z,0.40
2022-11-04T18:06:50.308Z,0.40
2022-11-04T18:09:19.200Z,0.65
2022-11-04T18:12:05.403Z,0.50
2022-11-04T18:14:32.341Z,0.43
2022-11-04T18:16:59.249Z,0.52
2022-11-04T18:19:27.121Z,0.70
2022-11-04T18:21:54.280Z,1.00
2022-11-04T18:24:21.376Z,1.17
2022-11-04T18:26:48.202Z,1.20
2022-11-04T18:29:15.915Z,0.90
2022-11-04T18:31:49.015Z,0.85
2022-11-04T18:34:19.381Z,0.73
2022-11-04T18:36:47.872Z,0.43
2022-11-04T18:39:16.661Z,0.40
2022-11-04T18:41:44.151Z,0.60
2022-11-04T18:44:22.708Z,0.43
2022-11-04T18:46:50.299Z,0.30
2022-11-04T18:49:17.820Z,0.40
2022-11-04T18:51:44.627Z,0.30
2022-11-04T18:54:12.172Z,0.40
2022-11-04T18:56:39.414Z,0.38
2022-11-04T18:59:09.413Z,0.38
2022-11-04T19:01:36.582Z,0.30
2022-11-04T19:04:04.194Z,0.40
2022-11-04T19:06:35.692Z,0.60
2022-11-04T19:09:32.005Z,0.30
2022-11-04T19:12:13.581Z,0.20
2022-11-04T19:14:40.427Z,0.30
2022-11-04T19:17:07.299Z,0.30
2022-11-04T19:19:34.140Z,0.43
2022-11-04T19:22:00.933Z,0.30
2022-11-04T19:24:28.655Z,0.38
2022-11-04T19:26:55.509Z,0.30
2022-11-04T19:29:22.403Z,0.30
2022-11-04T19:31:49.309Z,0.38
2022-11-04T19:34:16.070Z,0.20
2022-11-04T19:36:43.108Z,0.30
2022-11-04T19:39:09.872Z,0.30
2022-11-04T19:41:55.330Z,0.30
2022-11-04T19:44:22.461Z,0.20
2022-11-04T19:46:50.923Z,0.20
2022-11-04T19:49:18.452Z,0.30
2022-11-04T19:51:45.806Z,0.50
2022-11-04T19:54:13.039Z,0.40
2022-11-04T19:56:40.063Z,0.45
2022-11-04T19:59:08.211Z,0.40
2022-11-04T20:01:35.755Z,0.40
2022-11-04T20:04:03.911Z,0.50
2022-11-04T20:06:32.445Z,0.75
2022-11-04T20:09:05.270Z,0.55
2022-11-04T20:11:34.112Z,0.50
2022-11-04T20:14:07.572Z,0.40
2022-11-04T20:16:39.300Z,0.40
2022-11-04T20:19:06.312Z,0.40
2022-11-04T20:21:35.726Z,0.40
2022-11-04T20:24:05.499Z,0.40
2022-11-04T20:26:33.923Z,0.30
2022-11-04T20:29:02.459Z,0.20
2022-11-04T20:31:32.115Z,0.40
2022-11-04T20:34:02.475Z,0.50
2022-11-04T20:36:29.555Z,0.75
2022-11-04T20:39:01.163Z,0.90
2022-11-04T20:41:28.681Z,0.80
2022-11-04T20:43:56.197Z,0.70
2022-11-04T20:46:25.780Z,0.60
2022-11-04T20:48:53.913Z,0.60
2022-11-04T20:51:23.864Z,0.65
2022-11-04T20:53:56.087Z,0.50
2022-11-04T20:56:25.287Z,0.50
2022-11-04T20:58:59.130Z,0.60
2022-11-04T21:01:38.952Z,0.38
2022-11-04T21:04:08.379Z,0.30
2022-11-04T21:06:39.328Z,0.30
2022-11-04T21:09:08.844Z,0.20
2022-11-04T21:11:36.183Z,0.20
2022-11-04T21:14:04.387Z,0.47
2022-11-04T21:16:31.290Z,0.40
2022-11-04T21:18:58.163Z,0.38
2022-11-04T21:21:28.049Z,0.40
2022-11-04T21:23:59.112Z,0.60
2022-11-04T21:26:28.386Z,0.35
2022-11-04T21:29:01.464Z,0.50
2022-11-04T21:31:29.988Z,0.25
2022-11-04T21:33:57.619Z,0.30
2022-11-04T21:36:24.589Z,0.50
2022-11-04T21:38:51.544Z,0.50
2022-11-04T21:41:25.386Z,0.43
2022-11-04T21:43:56.576Z,0.50
2022-11-04T21:46:23.609Z,0.60
2022-11-04T21:48:50.544Z,0.50
2022-11-04T21:51:20.572Z,0.50
2022-11-04T21:53:47.597Z,0.50
2022-11-04T21:56:20.256Z,0.57
2022-11-04T21:58:47.315Z,0.40
2022-11-04T22:01:18.936Z,0.50
2022-11-04T22:03:55.149Z,0.60
2022-11-04T22:06:22.424Z,0.60
2022-11-04T22:08:54.156Z,0.45
2022-11-04T22:11:27.097Z,0.70
2022-11-04T22:13:58.522Z,0.50
2022-11-04T22:16:31.632Z,0.45
2022-11-04T22:19:02.300Z,0.50
2022-11-04T22:21:30.466Z,0.50
2022-11-04T22:23:58.118Z,0.50
2022-11-04T22:26:27.546Z,0.50
2022-11-04T22:28:55.589Z,0.52
2022-11-04T22:31:23.966Z,0.40
2022-11-04T22:33:52.030Z,0.60
2022-11-04T22:36:19.044Z,0.70
2022-11-04T22:38:46.539Z,0.60
2022-11-04T22:41:22.136Z,0.60
2022-11-04T22:43:49.179Z,0.50
2022-11-04T22:46:19.638Z,0.40
2022-11-04T22:48:46.889Z,0.40
2022-11-04T22:51:14.426Z,0.57
2022-11-04T22:53:41.557Z,0.57
2022-11-04T22:56:10.270Z,0.80
2022-11-04T22:58:37.085Z,0.50
2022-11-04T23:01:10.087Z,0.50
2022-11-04T23:03:37.289Z,0.40
2022-11-04T23:06:05.520Z,0.45
2022-11-04T23:08:34.069Z,0.50
2022-11-04T23:11:26.726Z,0.55
2022-11-04T23:14:20.170Z,0.55
2022-11-04T23:17:08.787Z,0.43
2022-11-04T23:19:36.554Z,0.40
2022-11-04T23:22:22.486Z,0.43
2022-11-04T23:25:09.580Z,0.50
2022-11-04T23:27:58.929Z,0.50
2022-11-04T23:30:27.849Z,0.57
2022-11-04T23:32:57.533Z,0.50
2022-11-04T23:35:53.947Z,0.60
2022-11-04T23:38:20.979Z,0.60
2022-11-04T23:41:08.755Z,0.55
2022-11-04T23:43:36.202Z,0.60
2022-11-04T23:46:22.009Z,0.47
2022-11-04T23:49:07.626Z,0.70
2022-11-04T23:51:53.436Z,0.50
2022-11-04T23:54:39.042Z,0.60
2022-11-04T23:57:33.473Z,0.70
